Time;durP1;ratioP1;P1;durP2;ratioP2;P2;SDS_P1;SDS_P2;PMS_P1;PMS_P2;Temp;Humidity;BMP_temperature;BMP_pressure;BME280_temperature;BME280_humidity;BME280_pressure;Samples;Min_cycle;Max_cycle;Signal;HPM_P1;HPM_P2
2023/08/31 00:02:11;;;;;;;17.80;10.75;;;15.40;96.50;;;;;;4974228;28;20033;-81
2023/08/31 00:04:38;;;;;;;16.55;10.35;;;15.40;96.50;;;;;;4974281;28;20384;-81
2023/08/31 00:07:04;;;;;;;20.58;12.05;;;15.40;96.60;;;;;;4953885;28;20123;-80
2023/08/31 00:09:30;;;;;;;30.35;12.38;;;15.40;96.70;;;;;;4968436;28;20449;-80
2023/08/31 00:11:56;;;;;;;17.45;10.68;;;15.40;96.80;;;;;;4956534;28;20499;-81
2023/08/31 00:14:23;;;;;;;19.73;10.43;;;15.40;97.00;;;;;;4974119;28;20046;-80
2023/08/31 00:16:49;;;;;;;17.95;10.73;;;15.30;97.00;;;;;;4957238;28;20022;-82
2023/08/31 00:19:15;;;;;;;14.00;10.03;;;15.30;97.10;;;;;;4968903;28;20094;-80
2023/08/31 00:21:42;;;;;;;17.13;11.93;;;15.30;97.20;;;;;;4976483;28;20058;-81
2023/08/31 00:24:09;;;;;;;17.10;10.93;;;15.30;97.30;;;;;;4973782;28;20113;-81
2023/08/31 00:26:39;;;;;;;19.23;11.68;;;15.40;97.40;;;;;;4956201;28;20023;-82
2023/08/31 00:29:05;;;;;;;14.52;11.02;;;15.40;97.40;;;;;;4956159;28;20122;-81
2023/08/31 00:31:31;;;;;;;17.92;11.93;;;15.50;97.30;;;;;;4973564;28;20026;-81
2023/08/31 00:33:56;;;;;;;20.45;12.65;;;15.50;97.30;;;;;;4972731;28;20480;-81
2023/08/31 00:36:23;;;;;;;20.40;11.60;;;15.50;97.30;;;;;;4956506;28;20081;-82
2023/08/31 00:38:49;;;;;;;21.48;13.50;;;15.50;97.30;;;;;;4974458;28;20018;-81
2023/08/31 00:41:14;;;;;;;16.67;12.75;;;15.50;97.30;;;;;;4956488;28;20503;-81
2023/08/31 00:43:40;;;;;;;16.65;12.63;;;15.50;97.30;;;;;;4956390;28;20023;-81
2023/08/31 00:46:06;;;;;;;22.13;13.73;;;15.40;97.40;;;;;;4974166;28;20521;-81
2023/08/31 00:48:32;;;;;;;18.20;13.68;;;15.40;97.50;;;;;;4956123;28;20054;-81
2023/08/31 00:51:00;;;;;;;21.30;14.05;;;15.40;97.50;;;;;;4973206;28;20035;-82
2023/08/31 00:53:27;;;;;;;25.45;13.45;;;15.40;97.60;;;;;;4973199;28;20075;-81
2023/08/31 00:55:53;;;;;;;22.17;15.27;;;15.30;97.70;;;;;;4973121;28;20444;-83
2023/08/31 00:58:19;;;;;;;23.10;13.90;;;15.30;97.70;;;;;;4973604;28;20035;-81
2023/08/31 01:01:05;;;;;;;23.02;12.98;;;15.30;97.80;;;;;;4977891;28;20432;-82
2023/08/31 01:04:02;;;;;;;25.33;18.02;;;15.30;97.90;;;;;;4979858;28;20385;-82
2023/08/31 01:06:47;;;;;;;30.08;21.73;;;15.30;97.90;;;;;;4972610;28;20031;-81
2023/08/31 01:09:36;;;;;;;32.97;22.27;;;15.30;98.00;;;;;;4956016;28;20499;-82
2023/08/31 01:12:36;;;;;;;34.65;21.20;;;15.30;98.10;;;;;;4973093;28;20026;-82
2023/08/31 01:15:09;;;;;;;58.30;24.75;;;15.30;98.10;;;;;;4888953;29;20090;-82
2023/08/31 01:17:44;;;;;;;32.30;21.80;;;15.30;98.30;;;;;;4969626;28;20128;-82
2023/08/31 01:20:11;;;;;;;22.48;17.65;;;15.20;98.30;;;;;;4973945;28;20641;-82
2023/08/31 01:22:44;;;;;;;;;;;15.20;98.30;;;;;;4977815;28;20073;-82
2023/08/31 01:25:10;;;;;;;26.08;17.33;;;15.20;98.00;;;;;;4965076;28;19958;-82
2023/08/31 01:27:38;;;;;;;20.23;16.30;;;15.20;98.30;;;;;;4975131;28;20396;-82
2023/08/31 01:30:04;;;;;;;21.77;15.80;;;15.20;98.50;;;;;;4991278;28;20018;-82
2023/08/31 01:32:31;;;;;;;22.33;16.67;;;15.10;98.50;;;;;;4980606;28;20578;-81
2023/08/31 01:34:57;;;;;;;26.33;17.07;;;15.10;98.60;;;;;;4973285;28;20453;-81
2023/08/31 01:37:42;;;;;;;20.88;16.67;;;15.10;98.70;;;;;;4973104;28;20289;-82
2023/08/31 01:40:20;;;;;;;25.50;16.27;;;15.10;98.70;;;;;;4972836;28;20027;-81
2023/08/31 01:42:47;;;;;;;21.33;15.90;;;15.10;98.80;;;;;;4976053;28;20041;-81
2023/08/31 01:45:19;;;;;;;22.60;16.02;;;15.10;98.80;;;;;;4977189;28;20054;-81
2023/08/31 01:47:45;;;;;;;23.23;15.73;;;15.10;98.90;;;;;;4977411;28;20440;-81
2023/08/31 01:50:12;;;;;;;29.27;17.25;;;15.10;99.00;;;;;;4977246;28;20023;-80
2023/08/31 01:52:37;;;;;;;23.85;17.30;;;15.10;99.00;;;;;;4979798;28;20047;-82
2023/08/31 01:55:05;;;;;;;21.98;16.73;;;15.10;99.00;;;;;;4981187;28;20082;-82
2023/08/31 01:57:31;;;;;;;23.73;17.33;;;15.10;99.10;;;;;;4982823;28;20041;-82
2023/08/31 01:59:58;;;;;;;28.35;18.08;;;15.10;99.10;;;;;;4976832;28;20533;-82
2023/08/31 02:02:24;;;;;;;24.38;17.80;;;15.10;99.20;;;;;;4976598;28;20019;-83
2023/08/31 02:04:52;;;;;;;27.15;17.33;;;15.10;99.10;;;;;;4976430;28;20022;-80
2023/08/31 02:07:19;;;;;;;25.48;16.83;;;15.10;99.10;;;;;;4980787;28;20030;-81
2023/08/31 02:09:45;;;;;;;24.25;16.38;;;15.10;99.20;;;;;;4991615;28;20019;-80
2023/08/31 02:12:10;;;;;;;22.88;16.15;;;15.10;99.20;;;;;;4976262;28;20046;-81
2023/08/31 02:14:36;;;;;;;23.35;16.50;;;15.10;99.30;;;;;;4975450;28;20564;-82
2023/08/31 02:17:02;;;;;;;33.17;17.75;;;15.10;99.40;;;;;;4958958;28;20026;-81
2023/08/31 02:19:28;;;;;;;24.50;16.65;;;15.10;99.70;;;;;;4976036;28;20495;-81
2023/08/31 02:21:54;;;;;;;29.33;16.63;;;15.10;99.40;;;;;;4976974;28;20023;-82
2023/08/31 02:24:20;;;;;;;27.63;17.23;;;15.20;99.30;;;;;;4975791;28;20101;-81
2023/08/31 02:26:48;;;;;;;33.05;17.17;;;15.20;99.30;;;;;;4976001;28;20518;-81
2023/08/31 02:29:13;;;;;;;;;;;15.20;99.30;;;;;;4975741;28;20023;-80
2023/08/31 02:31:39;;;;;;;24.20;16.33;;;15.20;99.00;;;;;;4962486;28;19906;-82
2023/08/31 02:34:05;;;;;;;23.23;15.57;;;15.20;99.20;;;;;;4976371;28;20035;-81
2023/08/31 02:36:31;;;;;;;23.95;15.93;;;15.20;99.20;;;;;;4975589;28;20468;-82
2023/08/31 02:38:57;;;;;;;26.52;16.05;;;15.10;99.20;;;;;;4975711;28;20026;-82
2023/08/31 02:41:22;;;;;;;24.10;16.25;;;15.10;99.30;;;;;;4991184;28;20023;-82
2023/08/31 02:43:52;;;;;;;24.77;15.73;;;15.10;99.40;;;;;;4969981;28;20070;-82
2023/08/31 02:46:18;;;;;;;24.52;15.25;;;15.10;99.40;;;;;;4975292;28;20101;-81
2023/08/31 02:48:44;;;;;;;31.90;16.35;;;15.10;99.40;;;;;;4972096;28;20034;-82
2023/08/31 02:51:10;;;;;;;22.88;15.57;;;15.10;99.50;;;;;;4978861;28;20033;-82
2023/08/31 02:53:36;;;;;;;23.83;16.13;;;15.10;99.50;;;;;;4975952;28;20406;-81
2023/08/31 02:56:02;;;;;;;22.85;15.40;;;15.10;99.50;;;;;;4975942;28;20484;-81
2023/08/31 02:58:28;;;;;;;30.20;15.55;;;15.10;99.50;;;;;;4989464;28;20023;-83
2023/08/31 03:00:55;;;;;;;25.85;16.25;;;15.10;99.50;;;;;;4977053;28;20062;-82
2023/08/31 03:03:21;;;;;;;26.48;16.27;;;15.10;99.50;;;;;;4983708;28;20070;-81
2023/08/31 03:05:47;;;;;;;26.35;16.38;;;15.10;99.40;;;;;;4988507;28;20126;-83
2023/08/31 03:08:13;;;;;;;30.08;16.15;;;15.10;99.40;;;;;;4960416;28;20027;-82
2023/08/31 03:10:39;;;;;;;28.20;16.33;;;15.20;99.40;;;;;;4978089;28;20022;-81
2023/08/31 03:13:05;;;;;;;29.55;17.52;;;15.20;99.30;;;;;;4978891;28;20035;-81
2023/08/31 03:15:36;;;;;;;24.30;15.07;;;15.20;99.30;;;;;;4959250;28;20041;-82
2023/08/31 03:18:02;;;;;;;26.40;15.45;;;15.20;99.30;;;;;;4975974;28;20057;-80
2023/08/31 03:20:28;;;;;;;27.15;16.08;;;15.20;99.20;;;;;;4979977;28;20388;-82
2023/08/31 03:22:54;;;;;;;20.70;13.93;;;15.30;99.20;;;;;;4981444;28;20031;-82
2023/08/31 03:25:19;;;;;;;30.75;17.15;;;15.30;99.40;;;;;;4961937;28;20033;-82
2023/08/31 03:27:45;;;;;;;36.00;17.70;;;15.40;99.00;;;;;;4963339;28;20053;-84
2023/08/31 03:30:11;;;;;;;35.78;17.25;;;15.40;99.00;;;;;;4980098;28;20035;-80
2023/08/31 03:32:37;;;;;;;32.97;17.58;;;15.40;98.90;;;;;;4960847;28;20031;-80
2023/08/31 03:35:04;;;;;;;24.90;16.85;;;15.50;98.90;;;;;;4979179;28;20106;-82
2023/08/31 03:37:29;;;;;;;22.65;15.63;;;15.50;98.80;;;;;;4976845;28;20026;-83
2023/08/31 03:39:55;;;;;;;28.98;15.13;;;15.60;98.70;;;;;;4975465;28;20026;-83
2023/08/31 03:42:21;;;;;;;25.20;16.08;;;15.70;98.70;;;;;;4975036;28;20034;-83
2023/08/31 03:44:47;;;;;;;19.60;16.15;;;15.70;98.50;;;;;;4975195;28;20027;-83
2023/08/31 03:47:13;;;;;;;28.08;15.68;;;15.80;98.40;;;;;;4975371;28;20436;-84
2023/08/31 03:49:38;;;;;;;26.42;17.40;;;15.90;98.20;;;;;;4975796;28;20022;-84
2023/08/31 03:52:04;;;;;;;36.22;17.50;;;16.00;98.10;;;;;;4973805;28;20049;-83
2023/08/31 03:54:30;;;;;;;31.90;17.50;;;16.10;98.00;;;;;;4958047;28;20042;-83
2023/08/31 03:56:56;;;;;;;28.65;16.17;;;16.30;97.80;;;;;;4975057;28;20023;-83
2023/08/31 03:59:22;;;;;;;26.17;15.98;;;16.40;97.60;;;;;;4967259;28;20480;-83
2023/08/31 04:01:47;;;;;;;25.42;16.42;;;16.50;97.30;;;;;;4968849;28;20023;-83
2023/08/31 04:04:13;;;;;;;27.52;16.80;;;16.60;97.10;;;;;;4995277;28;20019;-82
2023/08/31 04:06:39;;;;;;;32.08;17.02;;;16.60;97.00;;;;;;4985000;28;20136;-82
2023/08/31 04:09:05;;;;;;;23.02;17.10;;;16.60;96.80;;;;;;4977749;28;20079;-83
2023/08/31 04:11:31;;;;;;;32.13;17.60;;;16.70;96.80;;;;;;4989281;28;20391;-83
2023/08/31 04:13:57;;;;;;;53.28;18.48;;;16.70;96.70;;;;;;4977157;28;20528;-82
2023/08/31 04:16:23;;;;;;;23.17;15.85;;;16.90;96.70;;;;;;4978075;28;20094;-83
2023/08/31 04:18:51;;;;;;;22.70;16.00;;;17.00;96.40;;;;;;4982366;28;20126;-82
2023/08/31 04:21:20;;;;;;;42.33;18.80;;;17.10;96.20;;;;;;4966032;28;20057;-83
2023/08/31 04:23:45;;;;;;;25.27;16.02;;;17.30;96.20;;;;;;4980373;28;20074;-82
2023/08/31 04:26:12;;;;;;;25.65;16.23;;;17.40;96.10;;;;;;4963051;28;20026;-83
2023/08/31 04:28:40;;;;;;;23.65;16.35;;;17.60;95.70;;;;;;4993144;28;20033;-87
2023/08/31 04:31:07;;;;;;;25.45;15.63;;;17.90;95.40;;;;;;5003904;28;20030;-83
2023/08/31 04:33:34;;;;;;;24.92;16.23;;;18.30;94.70;;;;;;4983586;28;20018;-82
2023/08/31 04:36:00;;;;;;;29.90;17.55;;;18.60;93.60;;;;;;4980725;28;20058;-84
2023/08/31 04:38:26;;;;;;;21.08;15.35;;;18.70;93.10;;;;;;4976210;28;20031;-82
2023/08/31 04:40:52;;;;;;;45.15;18.42;;;18.70;92.70;;;;;;4984314;28;20049;-84
2023/08/31 04:43:17;;;;;;;42.83;17.80;;;18.70;92.70;;;;;;4975276;28;20018;-84
2023/08/31 04:45:43;;;;;;;33.35;17.52;;;18.60;92.80;;;;;;4976406;28;20023;-83
2023/08/31 04:48:09;;;;;;;39.80;18.63;;;18.60;92.70;;;;;;4974068;28;20038;-83
2023/08/31 04:50:35;;;;;;;33.65;16.83;;;18.60;92.70;;;;;;4974574;28;20129;-84
2023/08/31 04:53:01;;;;;;;33.83;16.30;;;18.60;92.70;;;;;;4957917;28;20054;-83
2023/08/31 04:55:26;;;;;;;26.13;17.00;;;18.60;92.60;;;;;;4994068;28;20042;-82
2023/08/31 04:57:52;;;;;;;33.20;16.98;;;18.60;92.60;;;;;;4981137;28;20026;-83
2023/08/31 05:00:18;;;;;;;29.13;16.70;;;18.50;92.50;;;;;;4973514;28;20035;-82
2023/08/31 05:02:44;;;;;;;36.53;16.85;;;18.50;92.50;;;;;;4966023;28;20027;-83
2023/08/31 05:05:10;;;;;;;48.17;18.38;;;18.60;92.70;;;;;;4951817;28;20698;-83
2023/08/31 05:07:37;;;;;;;24.95;16.52;;;18.90;92.70;;;;;;4962617;28;20026;-85
2023/08/31 05:10:03;;;;;;;31.40;18.42;;;19.10;91.70;;;;;;4974312;28;20031;-85
2023/08/31 05:12:29;;;;;;;32.55;18.30;;;19.10;91.50;;;;;;4960485;28;20050;-84
2023/08/31 05:14:55;;;;;;;42.90;19.38;;;19.10;91.50;;;;;;4972907;28;20035;-85
2023/08/31 05:17:21;;;;;;;37.65;20.80;;;19.00;91.70;;;;;;4976870;28;20484;-83
2023/08/31 05:19:47;;;;;;;36.88;19.40;;;19.30;92.50;;;;;;4978966;28;20079;-84
2023/08/31 05:22:16;;;;;;;36.38;19.40;;;20.10;91.20;;;;;;4978825;28;20063;-84
2023/08/31 05:24:42;;;;;;;40.85;18.50;;;20.60;89.10;;;;;;4977568;28;20034;-84
2023/08/31 05:27:07;;;;;;;29.00;15.35;;;21.20;88.30;;;;;;4972917;28;20023;-83
2023/08/31 05:29:33;;;;;;;27.92;15.77;;;22.10;84.90;;;;;;4972893;28;20032;-84
2023/08/31 05:31:59;;;;;;;25.33;15.40;;;22.80;82.20;;;;;;4980055;28;20073;-84
2023/08/31 05:34:25;;;;;;;24.25;15.30;;;23.70;79.30;;;;;;4959410;28;20034;-83
2023/08/31 05:36:52;;;;;;;34.58;16.35;;;24.20;75.80;;;;;;4977782;28;20081;-87
2023/08/31 05:39:18;;;;;;;24.13;15.77;;;23.80;75.40;;;;;;4977931;28;20062;-84
2023/08/31 05:41:43;;;;;;;26.35;15.68;;;23.10;76.70;;;;;;4976951;28;20069;-84
2023/08/31 05:44:10;;;;;;;28.27;14.57;;;22.90;77.80;;;;;;4957526;28;20022;-81
2023/08/31 05:46:38;;;;;;;26.85;14.85;;;23.40;77.20;;;;;;4964111;28;20054;-83
2023/08/31 05:49:04;;;;;;;19.50;13.00;;;24.20;74.90;;;;;;4987239;28;20029;-84
2023/08/31 05:51:30;;;;;;;17.70;13.23;;;25.10;71.30;;;;;;4979746;28;20038;-80
2023/08/31 05:53:56;;;;;;;23.10;12.83;;;25.30;69.90;;;;;;4992531;28;20143;-82
2023/08/31 05:56:22;;;;;;;22.23;12.50;;;25.80;69.80;;;;;;4980197;28;20034;-82
2023/08/31 05:58:50;;;;;;;28.88;13.65;;;26.80;67.30;;;;;;4972154;28;20019;-81
2023/08/31 06:01:16;;;;;;;22.00;13.55;;;27.70;64.60;;;;;;4954736;28;20042;-85
2023/08/31 06:03:41;;;;;;;27.25;12.35;;;28.40;62.00;;;;;;4980636;28;20018;-86
2023/08/31 06:06:07;;;;;;;23.55;12.85;;;28.80;60.10;;;;;;4959904;28;20031;-88
2023/08/31 06:08:33;;;;;;;33.30;14.13;;;28.80;58.90;;;;;;4975771;28;20431;-84
2023/08/31 06:10:59;;;;;;;26.90;14.07;;;28.70;59.00;;;;;;4944155;28;20035;-84
2023/08/31 06:13:25;;;;;;;13.75;11.52;;;28.80;58.30;;;;;;4957331;28;20023;-87
2023/08/31 06:15:51;;;;;;;18.48;12.57;;;28.80;58.00;;;;;;4991617;28;20038;-84
2023/08/31 06:18:16;;;;;;;18.88;13.00;;;28.50;58.30;;;;;;4978074;28;20089;-85
2023/08/31 06:20:42;;;;;;;17.50;11.82;;;28.90;58.40;;;;;;4960829;28;20472;-86
2023/08/31 06:23:10;;;;;;;24.98;12.85;;;29.20;57.00;;;;;;4960180;28;20074;-85
2023/08/31 06:25:35;;;;;;;18.77;11.85;;;29.50;57.10;;;;;;4977367;28;20050;-86
2023/08/31 06:28:02;;;;;;;28.90;12.15;;;30.30;55.60;;;;;;4981557;28;20015;-87
2023/08/31 06:30:28;;;;;;;28.65;12.07;;;31.00;54.70;;;;;;4970426;28;20035;-86
2023/08/31 06:32:54;;;;;;;27.40;13.40;;;31.60;53.10;;;;;;4978555;28;20033;-89
2023/08/31 06:35:20;;;;;;;30.73;12.20;;;32.20;52.20;;;;;;4961536;28;20039;-85
2023/08/31 06:37:46;;;;;;;15.65;10.55;;;32.70;51.20;;;;;;4980300;28;20058;-86
2023/08/31 06:40:12;;;;;;;34.43;13.33;;;33.00;50.50;;;;;;4967751;28;20150;-87
2023/08/31 06:42:38;;;;;;;17.85;11.45;;;33.20;49.90;;;;;;4985664;28;20102;-84
2023/08/31 06:45:06;;;;;;;32.85;13.02;;;33.60;49.00;;;;;;4960898;28;20058;-88
2023/08/31 06:47:35;;;;;;;43.22;13.63;;;34.20;48.30;;;;;;4989844;28;20026;-86
2023/08/31 06:50:02;;;;;;;16.10;9.35;;;34.40;47.60;;;;;;4995326;28;20026;-89
2023/08/31 06:52:28;;;;;;;32.20;12.45;;;34.40;47.00;;;;;;4978854;28;20035;-86
2023/08/31 06:54:56;;;;;;;19.37;10.77;;;33.80;47.40;;;;;;4962761;28;20049;-86
2023/08/31 06:57:23;;;;;;;21.52;11.07;;;33.60;47.60;;;;;;4991659;28;20022;-86
2023/08/31 06:59:50;;;;;;;23.23;10.68;;;32.90;48.10;;;;;;4978751;28;20027;-89
2023/08/31 07:02:16;;;;;;;32.33;13.13;;;32.90;49.20;;;;;;4949941;28;20141;-86
2023/08/31 07:04:42;;;;;;;37.80;16.15;;;33.40;48.40;;;;;;4981257;28;20392;-86
2023/08/31 07:07:13;;;;;;;17.92;10.70;;;33.80;47.50;;;;;;4946118;28;20023;-86
2023/08/31 07:09:39;;;;;;;37.90;14.27;;;33.90;47.20;;;;;;4979922;28;20030;-86
2023/08/31 07:12:06;;;;;;;20.55;10.90;;;34.30;47.20;;;;;;4961035;28;20026;-87
2023/08/31 07:14:32;;;;;;;39.97;12.68;;;34.80;46.40;;;;;;4961096;28;20035;-86
2023/08/31 07:17:01;;;;;;;23.98;11.43;;;35.30;45.50;;;;;;4962522;28;20031;-87
2023/08/31 07:19:27;;;;;;;35.88;13.07;;;35.20;45.40;;;;;;4979816;28;20439;-86
2023/08/31 07:21:56;;;;;;;22.33;11.03;;;35.20;45.00;;;;;;4969382;28;20058;-86
2023/08/31 07:24:27;;;;;;;23.55;11.30;;;35.60;44.80;;;;;;4979083;28;20034;-89
2023/08/31 07:26:53;;;;;;;15.10;9.45;;;35.80;44.60;;;;;;4961998;28;20453;-85
2023/08/31 07:29:19;;;;;;;23.45;11.10;;;36.00;44.10;;;;;;4976778;28;20102;-87
2023/08/31 07:31:44;;;;;;;66.38;18.38;;;36.20;43.60;;;;;;4978336;28;20115;-85
2023/08/31 07:34:10;;;;;;;78.90;22.60;;;36.30;43.50;;;;;;4950207;29;20118;-87
2023/08/31 07:36:36;;;;;;;90.63;20.70;;;36.40;43.70;;;;;;4975536;28;20377;-86
2023/08/31 07:39:03;;;;;;;416.85;84.25;;;36.90;43.10;;;;;;4977541;28;20023;-87
2023/08/31 07:41:29;;;;;;;226.07;51.08;;;37.10;42.80;;;;;;4966879;28;20037;-88
2023/08/31 07:43:55;;;;;;;109.63;30.25;;;36.90;42.50;;;;;;4995103;28;20015;-87
2023/08/31 07:46:21;;;;;;;27.13;10.52;;;37.00;42.70;;;;;;4971132;28;20049;-90
2023/08/31 07:48:48;;;;;;;12.35;9.55;;;37.10;42.40;;;;;;4997314;28;20098;-88
2023/08/31 07:51:14;;;;;;;20.25;9.63;;;36.80;42.40;;;;;;5006876;28;20003;-88
2023/08/31 07:53:40;;;;;;;22.45;10.43;;;36.60;42.90;;;;;;5004740;28;20046;-92
2023/08/31 07:56:06;;;;;;;31.20;12.63;;;36.80;42.70;;;;;;4973218;28;20047;-87
2023/08/31 07:58:32;;;;;;;22.27;10.63;;;37.00;42.80;;;;;;4982039;28;20023;-89
2023/08/31 08:00:57;;;;;;;26.55;11.57;;;37.50;42.40;;;;;;4986727;28;20504;-88
2023/08/31 08:03:23;;;;;;;40.00;11.70;;;38.10;42.00;;;;;;4981456;28;20027;-88
2023/08/31 08:05:49;;;;;;;23.38;10.45;;;38.40;41.20;;;;;;4963112;28;20051;-86
2023/08/31 08:08:15;;;;;;;;;;;38.40;41.10;;;;;;4978892;28;20034;-90
2023/08/31 08:10:42;;;;;;;75.07;20.20;;;38.60;42.70;;;;;;4976839;28;20263;-88
2023/08/31 08:13:10;;;;;;;84.35;21.88;;;38.90;41.20;;;;;;4976616;28;20047;-87
2023/08/31 08:15:37;;;;;;;23.23;12.10;;;39.20;40.50;;;;;;4974857;28;20113;-89
2023/08/31 08:18:04;;;;;;;48.58;14.88;;;39.40;39.70;;;;;;4962919;28;20015;-87
2023/08/31 08:20:29;;;;;;;43.80;13.05;;;39.40;40.20;;;;;;4962808;28;20027;-87
2023/08/31 08:22:57;;;;;;;31.63;11.75;;;39.60;40.10;;;;;;4975772;28;20433;-87
2023/08/31 08:25:23;;;;;;;23.70;11.73;;;39.70;39.30;;;;;;4959908;28;20492;-87
2023/08/31 08:27:50;;;;;;;19.52;8.57;;;39.80;39.50;;;;;;4959879;28;20114;-87
2023/08/31 08:30:16;;;;;;;17.08;8.60;;;40.00;39.00;;;;;;4959720;28;20520;-88
2023/08/31 08:32:42;;;;;;;73.00;15.65;;;40.10;38.50;;;;;;4979499;28;20027;-87
2023/08/31 08:35:08;;;;;;;46.58;13.52;;;40.40;38.80;;;;;;4983999;28;20373;-87
2023/08/31 08:37:34;;;;;;;47.85;15.43;;;40.60;38.20;;;;;;4985048;28;20097;-88
2023/08/31 08:40:00;;;;;;;;;;;40.80;38.00;;;;;;4962494;28;20116;-85
2023/08/31 08:42:29;;;;;;;47.92;11.55;;;40.80;39.20;;;;;;4981342;28;20284;-88
2023/08/31 08:44:57;;;;;;;35.25;11.25;;;;;;;;;;4982637;28;20026;-88
2023/08/31 08:47:24;;;;;;;31.92;10.73;;;40.80;38.10;;;;;;4960869;28;20049;-89
2023/08/31 08:49:50;;;;;;;20.75;8.95;;;41.10;37.60;;;;;;4979429;28;20106;-88
2023/08/31 08:52:16;;;;;;;39.33;11.30;;;41.00;38.80;;;;;;4972068;28;20035;-88
2023/08/31 08:54:42;;;;;;;;;;;41.30;52.20;;;;;;4993719;28;20081;-87
2023/08/31 08:57:07;;;;;;;162.95;29.23;;;41.30;45.50;;;;;;4978198;28;19939;-90
2023/08/31 08:59:33;;;;;;;45.15;12.15;;;41.30;37.40;;;;;;4976649;28;20106;-87
2023/08/31 09:01:59;;;;;;;;;;;;;;;;;;4975922;28;20018;-87
2023/08/31 09:04:25;;;;;;;23.08;9.60;;;41.60;37.50;;;;;;4977088;28;19913;-87
2023/08/31 09:06:51;;;;;;;;;;;42.00;36.70;;;;;;4974242;28;20046;-86
2023/08/31 09:09:17;;;;;;;207.32;46.38;;;42.30;37.80;;;;;;4975985;28;19910;-89
2023/08/31 09:11:43;;;;;;;;;;;42.00;36.30;;;;;;4977490;28;20381;-87
2023/08/31 09:14:21;;;;;;;46.70;11.95;;;42.10;37.50;;;;;;4976848;28;19913;-89
2023/08/31 09:16:50;;;;;;;14.80;6.60;;;42.30;37.20;;;;;;4981913;28;20066;-88
2023/08/31 09:19:22;;;;;;;17.92;8.10;;;42.10;35.70;;;;;;4976643;28;20027;-88
2023/08/31 09:21:49;;;;;;;20.83;7.10;;;41.80;36.00;;;;;;4976949;28;20027;-88
2023/08/31 09:24:17;;;;;;;44.15;12.32;;;42.10;36.10;;;;;;4978525;28;20019;-85
2023/08/31 09:26:50;;;;;;;11.25;6.10;;;42.20;35.80;;;;;;4989141;28;20030;-87
2023/08/31 09:29:16;;;;;;;68.97;13.43;;;42.10;35.70;;;;;;4976897;28;20027;-88
2023/08/31 09:31:46;;;;;;;14.50;6.60;;;42.10;35.50;;;;;;4978268;28;20033;-87
2023/08/31 09:34:16;;;;;;;14.40;6.20;;;41.20;35.00;;;;;;4986917;28;20401;-87
2023/08/31 09:36:42;;;;;;;32.92;10.45;;;41.20;35.90;;;;;;4979581;28;20048;-87
2023/08/31 09:39:10;;;;;;;22.73;6.72;;;41.40;35.80;;;;;;4985976;28;20073;-87
2023/08/31 09:41:51;;;;;;;29.50;8.48;;;41.20;34.90;;;;;;4974658;28;20093;-88
2023/08/31 09:44:19;;;;;;;14.90;6.72;;;40.70;35.50;;;;;;4975636;28;20027;-89
2023/08/31 09:46:45;;;;;;;28.67;8.65;;;40.60;35.60;;;;;;4977696;28;20055;-88
2023/08/31 09:49:14;;;;;;;35.15;8.20;;;40.90;35.70;;;;;;4979097;28;20019;-87
2023/08/31 09:51:45;;;;;;;21.85;7.32;;;41.20;35.20;;;;;;4982927;28;20045;-88
2023/08/31 09:54:14;;;;;;;20.27;7.35;;;41.40;35.10;;;;;;4985237;28;20039;-89
2023/08/31 09:56:43;;;;;;;95.40;17.63;;;41.60;35.50;;;;;;4963340;28;20047;-89
2023/08/31 09:59:09;;;;;;;19.63;8.30;;;41.80;35.30;;;;;;4986094;28;20122;-89
2023/08/31 10:01:36;;;;;;;26.65;7.68;;;42.00;35.70;;;;;;4977348;28;20153;-90
2023/08/31 10:04:03;;;;;;;25.55;8.07;;;42.20;34.60;;;;;;4977862;28;20384;-88
2023/08/31 10:06:31;;;;;;;25.30;8.85;;;41.90;35.10;;;;;;4978683;28;20029;-89
2023/08/31 10:08:56;;;;;;;24.35;7.82;;;41.40;35.20;;;;;;4994370;28;20161;-89
2023/08/31 10:11:23;;;;;;;;;;;41.40;35.50;;;;;;4978411;28;20058;-87
2023/08/31 10:13:50;;;;;;;13.43;6.22;;;41.50;36.00;;;;;;4977831;28;19913;-88
2023/08/31 10:16:17;;;;;;;45.05;11.48;;;41.70;35.30;;;;;;4978086;28;20153;-85
2023/08/31 10:18:43;;;;;;;29.42;9.15;;;42.10;35.00;;;;;;4977959;28;20620;-88
2023/08/31 10:21:08;;;;;;;;;;;42.40;34.80;;;;;;4965546;28;20117;-89
2023/08/31 10:23:35;;;;;;;12.48;6.68;;;41.90;35.00;;;;;;4990137;28;19906;-87
2023/08/31 10:26:03;;;;;;;22.10;7.82;;;40.20;35.20;;;;;;4980098;28;20037;-89
2023/08/31 10:28:29;;;;;;;38.75;10.23;;;38.10;37.10;;;;;;4961689;28;20399;-88
2023/08/31 10:31:06;;;;;;;23.55;9.90;;;36.20;39.50;;;;;;4977002;28;20102;-89
2023/08/31 10:33:33;;;;;;;33.72;10.30;;;;;;;;;;4966277;28;20030;-90
2023/08/31 10:36:00;;;;;;;21.77;8.55;;;;;;;;;;4963404;28;20030;-88
2023/08/31 10:38:32;;;;;;;26.52;9.13;;;34.50;42.00;;;;;;4982135;28;20027;-89
2023/08/31 10:41:02;;;;;;;18.20;8.25;;;31.50;45.40;;;;;;4992618;28;20077;-89
2023/08/31 10:43:46;;;;;;;18.02;7.85;;;30.50;47.00;;;;;;4982371;28;20019;-87
2023/08/31 10:46:16;;;;;;;11.18;7.40;;;29.90;48.40;;;;;;4980084;28;20027;-88
2023/08/31 10:48:52;;;;;;;18.45;8.32;;;;;;;;;;4985630;28;20030;-88
2023/08/31 10:51:18;;;;;;;22.93;9.13;;;;;;;;;;4983469;28;20425;-87
2023/08/31 10:53:46;;;;;;;23.77;9.93;;;29.40;49.40;;;;;;4978278;28;20125;-88
2023/08/31 10:56:12;;;;;;;13.50;7.68;;;28.50;51.40;;;;;;4961318;28;20042;-88
2023/08/31 10:58:38;;;;;;;13.73;8.30;;;28.40;51.50;;;;;;4994535;28;20022;-87
2023/08/31 11:01:04;;;;;;;10.23;6.80;;;;;;;;;;4982344;28;20037;-88
2023/08/31 11:03:30;;;;;;;18.45;9.65;;;;;;;;;;4979952;28;20015;-91
2023/08/31 11:05:57;;;;;;;9.27;7.50;;;;;;;;;;4978883;28;20093;-88
2023/08/31 11:08:24;;;;;;;15.15;7.30;;;;;;;;;;4963131;28;20437;-89
2023/08/31 11:10:50;;;;;;;19.83;9.40;;;;;;;;;;4986441;28;20022;-89
2023/08/31 11:13:17;;;;;;;27.00;11.88;;;;;;;;;;4996631;28;20054;-88
2023/08/31 11:15:46;;;;;;;17.23;9.32;;;;;;;;;;4982442;28;20035;-89
2023/08/31 11:18:16;;;;;;;25.52;12.00;;;;;;;;;;4987616;28;20022;-87
2023/08/31 11:20:42;;;;;;;27.05;9.60;;;;;;;;;;4987083;28;20031;-88
2023/08/31 11:23:09;;;;;;;20.15;9.38;;;;;;;;;;4948925;28;20019;-89
2023/08/31 11:25:35;;;;;;;16.27;8.55;;;;;;;;;;4987358;28;20042;-88
2023/08/31 11:28:06;;;;;;;14.27;7.63;;;;;;;;;;4990820;28;20069;-90
2023/08/31 11:30:33;;;;;;;14.57;7.90;;;28.20;51.90;;;;;;4975386;28;20459;-87
2023/08/31 11:33:11;;;;;;;106.85;58.97;;;;;;;;;;4978449;28;20023;-88
2023/08/31 11:35:37;;;;;;;16.60;9.27;;;;;;;;;;4978047;28;20057;-88
2023/08/31 11:38:04;;;;;;;25.63;10.82;;;;;;;;;;4978409;28;20051;-88
2023/08/31 11:40:30;;;;;;;35.50;20.17;;;;;;;;;;4977638;28;20022;-87
2023/08/31 11:42:57;;;;;;;41.07;17.00;;;;;;;;;;4976764;28;20029;-88
2023/08/31 11:45:23;;;;;;;20.40;9.13;;;;;;;;;;4984360;28;20479;-87
2023/08/31 11:47:50;;;;;;;54.88;20.00;;;;;;;;;;4985036;28;20392;-88
2023/08/31 11:50:17;;;;;;;49.50;12.30;;;;;;;;;;4963506;28;20039;-89
2023/08/31 11:52:43;;;;;;;17.80;8.20;;;;;;;;;;4977245;28;20031;-89
2023/08/31 11:55:13;;;;;;;16.30;7.83;;;;;;;;;;4959985;28;20473;-88
2023/08/31 11:57:39;;;;;;;14.00;7.25;;;;;;;;;;4990904;28;20030;-89
2023/08/31 12:00:06;;;;;;;13.88;7.65;;;;;;;;;;4981967;28;20089;-88
2023/08/31 12:02:39;;;;;;;9.15;7.10;;;;;;;;;;4978553;28;20066;-88
2023/08/31 12:05:05;;;;;;;21.55;9.10;;;;;;;;;;4981374;28;20026;-89
2023/08/31 12:07:31;;;;;;;13.90;8.43;;;;;;;;;;4960013;28;20177;-88
2023/08/31 12:10:07;;;;;;;13.52;7.60;;;;;;;;;;4990710;28;20384;-88
2023/08/31 12:12:34;;;;;;;12.95;8.43;;;;;;;;;;4964357;28;20427;-87
2023/08/31 12:15:03;;;;;;;11.10;7.40;;;;;;;;;;4958172;29;20035;-87
2023/08/31 12:17:30;;;;;;;11.32;7.18;;;;;;;;;;4976613;28;20045;-89
2023/08/31 12:20:04;;;;;;;13.73;8.43;;;;;;;;;;4965027;28;20019;-86
2023/08/31 12:22:31;;;;;;;10.55;8.82;;;;;;;;;;5002551;28;20248;-89
2023/08/31 12:24:57;;;;;;;29.08;12.93;;;;;;;;;;4973714;28;20057;-88
2023/08/31 12:27:23;;;;;;;14.43;9.27;;;;;;;;;;5000920;28;20023;-89
2023/08/31 12:29:50;;;;;;;25.58;15.35;;;;;;;;;;4999725;28;20102;-88
2023/08/31 12:32:18;;;;;;;;;;;;;;;;;;4986953;28;20081;-88
2023/08/31 12:34:44;;;;;;;32.67;12.25;;;;;;;;;;4978885;28;19946;-88
2023/08/31 12:37:10;;;;;;;15.98;8.45;;;;;;;;;;4978636;28;20388;-87
2023/08/31 12:39:37;;;;;;;15.52;9.48;;;;;;;;;;4984748;28;20102;-87
2023/08/31 12:42:04;;;;;;;104.85;50.13;;;;;;;;;;4983688;28;20456;-89
2023/08/31 12:44:31;;;;;;;30.90;17.73;;;;;;;;;;4978476;28;20067;-87
2023/08/31 12:46:57;;;;;;;18.42;8.70;;;;;;;;;;4961776;28;20496;-88
2023/08/31 12:49:23;;;;;;;30.83;11.77;;;;;;;;;;4960490;28;20034;-86